Time;durP1;ratioP1;P1;durP2;ratioP2;P2;SDS_P1;SDS_P2;PMS_P1;PMS_P2;Temp;Humidity;BMP_temperature;BMP_pressure;BME280_temperature;BME280_humidity;BME280_pressure;Samples;Min_cycle;Max_cycle;Signal;HPM_P1;HPM_P2
2022/05/14 00:00:32;;;;;;;14.85;7.68;;;;;;;17.30;67.04;94790.91;5053453;28;20186;-83
2022/05/14 00:02:58;;;;;;;15.13;8.00;;;;;;;17.03;66.75;94750.28;5052922;28;20186;-83
2022/05/14 00:05:25;;;;;;;15.55;7.97;;;;;;;17.28;66.83;94801.03;5052827;28;20260;-83
2022/05/14 00:07:51;;;;;;;14.10;7.85;;;;;;;17.27;67.14;94794.09;5035286;28;20171;-83
2022/05/14 00:10:22;;;;;;;14.88;7.35;;;;;;;17.25;66.78;94788.22;5053282;28;20293;-83
2022/05/14 00:13:06;;;;;;;13.57;7.90;;;;;;;17.02;66.87;94759.31;5034865;28;20636;-83
2022/05/14 00:15:39;;;;;;;11.20;7.07;;;;;;;17.21;67.55;94784.50;5040971;28;20257;-83
2022/05/14 00:18:06;;;;;;;13.35;6.68;;;;;;;16.97;67.29;94752.06;5051412;28;20179;-83
2022/05/14 00:20:32;;;;;;;10.18;6.82;;;;;;;17.18;67.31;94785.78;5052706;28;20527;-83
2022/05/14 00:22:58;;;;;;;13.77;6.65;;;;;;;17.05;67.58;94775.56;5052735;28;20175;-83
2022/05/14 00:25:25;;;;;;;15.77;7.35;;;;;;;17.05;67.61;94780.88;5052356;28;20286;-83
2022/05/14 00:27:51;;;;;;;12.82;7.05;;;;;;;17.03;67.72;94790.97;5049659;28;20183;-83
2022/05/14 00:30:18;;;;;;;15.48;6.47;;;;;;;16.97;68.12;94787.44;5052448;28;20569;-83
2022/05/14 00:32:44;;;;;;;10.25;6.40;;;;;;;16.70;67.89;94736.13;5045360;28;20662;-83
2022/05/14 00:35:10;;;;;;;14.15;7.05;;;;;;;16.74;68.97;94779.00;5034661;28;20306;-83
2022/05/14 00:37:37;;;;;;;9.93;6.78;;;;;;;16.62;69.14;94760.50;5034978;28;20182;-83
2022/05/14 00:40:08;;;;;;;9.80;5.97;;;;;;;16.44;69.58;94735.06;5052469;28;20249;-84
2022/05/14 00:42:33;;;;;;;12.60;7.15;;;;;;;16.34;69.53;94712.91;5052322;28;20167;-84
2022/05/14 00:44:59;;;;;;;8.98;6.68;;;;;;;16.54;69.36;94748.44;5034562;28;20689;-84
2022/05/14 00:47:29;;;;;;;34.22;7.63;;;;;;;16.77;69.63;94781.97;5052340;28;20171;-84
2022/05/14 00:49:54;;;;;;;21.60;8.20;;;;;;;16.73;69.82;94772.06;5033341;28;20631;-84
2022/05/14 00:52:21;;;;;;;11.02;6.90;;;;;;;16.71;70.00;94766.19;5020590;28;20241;-84
2022/05/14 00:55:03;;;;;;;11.90;6.43;;;;;;;16.37;70.22;94728.34;5043456;28;20225;-84
2022/05/14 00:57:35;;;;;;;15.57;7.13;;;;;;;16.50;70.04;94760.66;5041052;28;20258;-84
2022/05/14 01:00:07;;;;;;;15.65;6.40;;;;;;;16.60;70.42;94781.22;5045023;28;20575;-84
2022/05/14 01:02:33;;;;;;;10.70;5.93;;;;;;;16.56;70.49;94774.78;5050567;28;20658;-84
2022/05/14 01:04:59;;;;;;;10.18;6.68;;;;;;;16.27;70.70;94733.53;5051610;28;20229;-83
2022/05/14 01:07:24;;;;;;;20.20;7.93;;;;;;;16.51;70.93;94778.19;5051822;28;20175;-83
2022/05/14 01:09:55;;;;;;;13.80;7.50;;;;;;;16.45;71.30;94778.38;5044108;28;20167;-83
2022/05/14 01:12:23;;;;;;;9.40;6.68;;;;;;;15.91;71.16;94701.28;5041635;28;20182;-83
2022/05/14 01:14:49;;;;;;;11.82;6.95;;;;;;;16.06;71.44;94724.53;5044751;28;20178;-84
2022/05/14 01:17:14;;;;;;;14.18;6.90;;;;;;;15.78;71.33;94689.16;5044200;28;20643;-84
2022/05/14 01:19:40;;;;;;;9.80;6.47;;;;;;;16.33;71.83;94769.75;5051654;28;20179;-83
2022/05/14 01:22:43;;;;;;;13.27;6.82;;;;;;;16.29;72.14;94776.59;5051391;28;20179;-82
2022/05/14 01:28:18;;;;;;;13.02;7.28;;;;;;;16.20;72.37;94768.25;5049531;28;21068;-82
2022/05/14 01:30:55;;;;;;;16.73;7.07;;;;;;;16.17;72.74;94769.53;5051457;28;20254;-82
2022/05/14 01:33:21;;;;;;;9.77;6.68;;;;;;;16.14;72.65;94755.97;5031114;28;20194;-82
2022/05/14 01:35:47;;;;;;;10.65;6.13;;;;;;;15.84;72.97;94719.22;5033939;28;20678;-83
2022/05/14 01:38:13;;;;;;;11.05;7.45;;;;;;;15.95;72.84;94731.56;5051367;28;20171;-83
2022/05/14 01:40:38;;;;;;;11.73;7.00;;;;;;;15.85;73.06;94713.66;5051280;28;20197;-83
2022/05/14 01:43:04;;;;;;;13.18;7.72;;;;;;;15.81;73.08;94695.84;5050092;28;20174;-83
2022/05/14 01:45:30;;;;;;;11.02;8.07;;;;;;;16.05;73.63;94752.16;5051418;28;20190;-83
2022/05/14 01:47:56;;;;;;;16.73;7.57;;;;;;;15.92;73.70;94726.75;5051345;28;20175;-83
2022/05/14 01:50:22;;;;;;;12.50;8.25;;;;;;;15.97;73.77;94740.09;5032937;28;20194;-82
2022/05/14 01:52:47;;;;;;;13.73;6.68;;;;;;;15.73;73.75;94710.34;5050823;28;20167;-83
2022/05/14 01:55:13;;;;;;;14.68;7.03;;;;;;;15.77;74.12;94713.28;5049974;28;20661;-84
2022/05/14 01:57:38;;;;;;;11.63;6.97;;;;;;;15.75;74.14;94720.69;5051260;28;20168;-84
2022/05/14 02:00:06;;;;;;;15.25;7.07;;;;;;;15.87;74.31;94741.81;5050705;28;20634;-84
2022/05/14 02:02:32;;;;;;;11.25;7.07;;;;;;;15.65;74.10;94707.31;5033508;28;20185;-83
2022/05/14 02:04:57;;;;;;;9.15;7.15;;;;;;;15.46;74.31;94694.31;5051102;28;20195;-83
2022/05/14 02:07:23;;;;;;;15.07;7.22;;;;;;;15.34;74.68;94677.66;5050870;28;20236;-83
2022/05/14 02:09:48;;;;;;;10.18;7.40;;;;;;;15.33;74.71;94681.38;5020305;28;20202;-84
2022/05/14 02:12:14;;;;;;;12.70;8.10;;;;;;;15.40;75.19;94713.03;5023458;28;20637;-83
2022/05/14 02:14:39;;;;;;;10.77;6.97;;;;;;;15.38;75.29;94700.03;5043267;28;20711;-84
2022/05/14 02:17:05;;;;;;;9.30;6.88;;;;;;;15.52;75.12;94724.34;5039589;28;20164;-84
2022/05/14 02:19:30;;;;;;;14.43;7.22;;;;;;;15.60;75.34;94741.72;5041264;28;20175;-84
2022/05/14 02:21:56;;;;;;;10.38;7.13;;;;;;;15.45;75.41;94713.09;5024102;28;20171;-83
2022/05/14 02:24:21;;;;;;;12.15;7.57;;;;;;;15.64;75.43;94740.19;5043035;28;20198;-83
2022/05/14 02:26:47;;;;;;;10.85;6.70;;;;;;;15.63;75.22;94744.72;5033099;28;20164;-83
2022/05/14 02:29:12;;;;;;;12.90;7.85;;;;;;;15.66;75.29;94751.34;5050629;28;20193;-82
2022/05/14 02:31:38;;;;;;;8.07;7.10;;;;;;;15.42;75.42;94708.28;5050988;28;20250;-83
2022/05/14 02:34:03;;;;;;;16.50;7.53;;;;;;;15.59;75.36;94737.47;5032885;28;20582;-84
2022/05/14 02:36:29;;;;;;;14.00;6.85;;;;;;;15.57;75.34;94729.75;5052612;28;20159;-84
2022/05/14 02:38:54;;;;;;;15.25;7.47;;;;;;;15.38;75.47;94707.97;5054759;28;20278;-83
2022/05/14 02:41:20;;;;;;;11.38;7.50;;;;;;;15.39;75.46;94716.75;5052328;28;20179;-83
2022/05/14 02:43:45;;;;;;;15.07;7.63;;;;;;;15.59;75.87;94756.03;5050703;28;20282;-83
2022/05/14 02:46:12;;;;;;;17.02;8.07;;;;;;;15.52;76.17;94758.03;5032655;28;20194;-83
2022/05/14 02:48:38;;;;;;;11.85;7.38;;;;;;;15.05;76.34;94689.44;5050202;28;20229;-83
2022/05/14 02:51:04;;;;;;;12.75;7.10;;;;;;;15.21;75.98;94719.66;5049547;28;20609;-84
2022/05/14 02:53:30;;;;;;;9.40;7.68;;;;;;;15.44;76.29;94762.72;5032979;28;20254;-84
2022/05/14 02:55:56;;;;;;;79.68;44.67;;;;;;;15.01;76.83;94693.63;5050615;28;20187;-84
2022/05/14 03:01:06;;;;;;;19.50;13.05;;;;;;;15.23;76.01;94723.66;5050553;28;20175;-84
2022/05/14 03:03:32;;;;;;;32.20;20.17;;;;;;;15.30;75.77;94732.28;5032801;28;20262;-84
2022/05/14 03:05:58;;;;;;;25.10;13.27;;;;;;;15.49;75.47;94767.28;5054330;28;20259;-85
2022/05/14 03:08:25;;;;;;;29.27;19.15;;;;;;;15.54;76.23;94766.59;5052112;28;20168;-84
2022/05/14 03:10:50;;;;;;;28.27;13.02;;;;;;;15.48;75.24;94744.44;5054034;28;20167;-84
2022/05/14 03:13:16;;;;;;;25.02;14.70;;;;;;;15.55;75.49;94763.69;5053715;28;20284;-83
2022/05/14 03:15:42;;;;;;;13.65;8.38;;;;;;;15.50;75.05;94758.28;5053993;28;20179;-84
2022/05/14 03:18:08;;;;;;;18.10;9.27;;;;;;;15.19;74.72;94709.28;5053810;28;20170;-84
2022/05/14 03:20:33;;;;;;;15.93;9.32;;;;;;;15.35;75.13;94740.28;5042807;28;20601;-84
2022/05/14 03:22:59;;;;;;;22.83;8.90;;;;;;;15.56;75.53;94772.47;5039073;28;20226;-84
2022/05/14 03:25:25;;;;;;;27.10;12.88;;;;;;;15.25;75.83;94723.41;5030435;28;20195;-85
2022/05/14 03:27:51;;;;;;;18.85;9.70;;;;;;;15.51;75.74;94759.88;5043992;28;20202;-85
2022/05/14 03:30:17;;;;;;;20.08;11.38;;;;;;;15.56;75.21;94769.81;5035709;28;20206;-85
2022/05/14 03:32:43;;;;;;;13.98;8.38;;;;;;;15.30;75.42;94726.16;5035604;28;20412;-85
2022/05/14 03:35:08;;;;;;;26.25;10.50;;;;;;;15.20;75.57;94702.13;5053931;28;20225;-85
2022/05/14 03:37:35;;;;;;;17.63;9.30;;;;;;;15.26;75.22;94720.53;5053373;28;20250;-85
2022/05/14 03:40:01;;;;;;;21.45;11.77;;;;;;;15.30;75.17;94720.84;5035492;28;20171;-85
2022/05/14 03:42:26;;;;;;;39.47;21.58;;;;;;;15.72;75.18;94776.94;5053069;28;20163;-84
2022/05/14 03:44:53;;;;;;;35.72;18.98;;;;;;;15.67;74.63;94751.13;5035237;28;20202;-84
2022/05/14 03:47:18;;;;;;;18.92;10.10;;;;;;;15.89;74.11;94776.91;5035145;28;20175;-84
2022/05/14 03:49:45;;;;;;;22.92;7.68;;;;;;;15.95;74.06;94784.69;5027853;28;20638;-84
2022/05/14 03:52:11;;;;;;;13.55;7.13;;;;;;;15.77;74.30;94758.41;5025994;28;20240;-84
2022/05/14 03:54:43;;;;;;;24.45;8.43;;;;;;;15.86;74.16;94772.88;5041162;28;20174;-84
2022/05/14 03:57:08;;;;;;;11.48;7.63;;;;;;;15.85;74.02;94773.91;5051363;28;20660;-84
2022/05/14 03:59:35;;;;;;;16.25;7.70;;;;;;;15.64;74.44;94730.41;5035142;28;20175;-84
2022/05/14 04:02:02;;;;;;;19.52;7.90;;;;;;;15.76;74.22;94743.53;5053288;28;20205;-84
2022/05/14 04:04:28;;;;;;;12.40;8.20;;;;;;;15.72;73.86;94734.47;5052679;28;20195;-84
2022/05/14 04:06:53;;;;;;;11.73;8.68;;;;;;;15.88;74.01;94748.75;5053007;28;20652;-84
2022/05/14 04:09:19;;;;;;;14.18;8.35;;;;;;;16.07;74.47;94774.75;5052803;28;20187;-84
2022/05/14 04:11:45;;;;;;;14.48;7.45;;;;;;;16.09;74.60;94767.31;5045729;28;20179;-84
2022/05/14 04:14:11;;;;;;;11.45;6.93;;;;;;;16.34;74.57;94789.94;5052722;28;20238;-84
2022/05/14 04:16:37;;;;;;;11.48;7.97;;;;;;;16.51;74.97;94807.44;5052147;28;20193;-84
2022/05/14 04:19:02;;;;;;;18.90;9.20;;;;;;;16.48;73.91;94776.03;5034820;28;20167;-84
2022/05/14 04:21:28;;;;;;;16.83;8.05;;;;;;;16.77;72.52;94803.22;5052383;28;20172;-84
2022/05/14 04:23:54;;;;;;;16.35;7.40;;;;;;;16.97;71.72;94811.38;5052314;28;20194;-84
2022/05/14 04:26:22;;;;;;;10.82;7.72;;;;;;;17.23;71.25;94809.75;5052452;28;20170;-84
2022/05/14 04:28:48;;;;;;;12.32;8.07;;;;;;;17.43;70.16;94803.81;5052149;28;20179;-84
2022/05/14 04:31:13;;;;;;;16.25;8.10;;;;;;;17.48;69.67;94792.41;5034469;28;20167;-84
2022/05/14 04:33:38;;;;;;;12.13;7.75;;;;;;;17.44;69.18;94759.38;5020041;28;20242;-84
2022/05/14 04:36:04;;;;;;;17.30;8.00;;;;;;;17.79;68.43;94799.59;5041051;28;20174;-84
2022/05/14 04:38:30;;;;;;;12.07;7.35;;;;;;;17.65;67.04;94761.94;5025197;28;20178;-84
2022/05/14 04:40:55;;;;;;;10.38;7.25;;;;;;;18.03;66.50;94806.13;5023771;28;20171;-85
2022/05/14 04:43:21;;;;;;;8.70;6.63;;;;;;;18.13;65.50;94788.56;5039620;28;20710;-84
2022/05/14 04:45:46;;;;;;;9.93;7.30;;;;;;;18.32;64.25;94809.19;5039093;28;20176;-84
2022/05/14 04:48:12;;;;;;;8.30;6.70;;;;;;;18.11;64.26;94780.84;5040994;28;20651;-85
2022/05/14 04:50:38;;;;;;;15.82;7.28;;;;;;;18.27;63.90;94801.16;5025594;28;20251;-84
2022/05/14 04:53:04;;;;;;;13.75;7.88;;;;;;;18.57;64.36;94845.84;5051426;28;20171;-84
2022/05/14 04:55:30;;;;;;;16.05;8.40;;;;;;;18.51;64.87;94814.06;5051644;28;20171;-84
2022/05/14 04:57:58;;;;;;;17.42;7.60;;;;;;;18.53;63.80;94761.28;5051710;28;20175;-85
2022/05/14 05:00:23;;;;;;;10.43;7.60;;;;;;;19.01;62.39;94800.09;5051581;28;20175;-84
2022/05/14 05:05:33;;;;;;;14.55;7.85;;;;;;;19.65;60.36;94837.81;5043760;28;20251;-84
2022/05/14 05:07:59;;;;;;;15.93;7.45;;;;;;;;;;5042957;28;20168;-85
2022/05/14 05:10:24;;;;;;;11.80;7.82;;;;;;;19.10;61.26;94772.63;5042916;28;20256;-85
2022/05/14 05:12:50;;;;;;;13.00;7.35;;;;;;;19.32;62.37;94833.78;5037945;28;20603;-84
2022/05/14 05:15:15;;;;;;;17.23;9.20;;;;;;;19.13;63.23;94806.78;5040311;28;20187;-85
2022/05/14 05:17:41;;;;;;;14.73;8.65;;;;;;;20.01;61.81;94849.28;5024136;28;20183;-85
2022/05/14 05:20:07;;;;;;;19.88;8.98;;;;;;;21.25;57.71;94863.59;5037760;28;20181;-85
2022/05/14 05:22:32;;;;;;;11.88;8.00;;;;;;;22.28;52.68;94826.88;5033588;28;20190;-85
2022/05/14 05:24:58;;;;;;;12.85;7.57;;;;;;;23.45;49.38;94829.69;5050450;28;20686;-85
2022/05/14 05:27:24;;;;;;;12.93;7.93;;;;;;;24.52;46.60;94809.88;5050098;28;20210;-86
2022/05/14 05:29:49;;;;;;;15.98;8.73;;;;;;;25.26;45.81;94796.19;5033430;28;20217;-85
2022/05/14 05:32:15;;;;;;;19.60;8.80;;;;;;;25.97;43.09;94810.72;5051471;28;20175;-85
2022/05/14 05:34:41;;;;;;;24.30;8.70;;;;;;;26.61;41.03;94833.63;5037511;28;20211;-85
2022/05/14 05:37:06;;;;;;;11.48;7.05;;;;;;;26.92;41.57;94825.47;5021560;28;20681;-86
2022/05/14 05:39:32;;;;;;;13.05;7.35;;;;;;;27.35;40.09;94856.09;5032813;28;20163;-86
2022/05/14 05:41:58;;;;;;;13.93;7.57;;;;;;;27.16;39.57;94803.41;5032756;28;20183;-86
2022/05/14 05:44:25;;;;;;;9.93;7.03;;;;;;;27.35;39.14;94806.63;5051169;28;20197;-86
2022/05/14 05:46:52;;;;;;;14.90;9.15;;;;;;;27.53;39.39;94873.13;5032823;28;20226;-86
2022/05/14 05:49:17;;;;;;;11.35;7.50;;;;;;;27.32;38.65;94812.69;5033476;28;20209;-85
2022/05/14 05:51:43;;;;;;;11.85;7.28;;;;;;;27.73;38.92;94860.94;5050996;28;20171;-84
2022/05/14 05:56:57;;;;;;;13.45;7.78;;;;;;;28.07;39.19;94870.94;5050085;28;20564;-82
2022/05/14 05:59:24;;;;;;;11.75;7.75;;;;;;;28.44;38.37;94874.88;5047214;28;20160;-82
2022/05/14 06:01:52;;;;;;;14.60;8.60;;;;;;;27.74;38.20;94851.69;5034352;28;20182;-82
2022/05/14 06:04:17;;;;;;;12.18;8.00;;;;;;;27.53;39.11;94818.22;5044216;28;20698;-82
2022/05/14 06:06:43;;;;;;;13.13;9.65;;;;;;;27.64;40.20;94820.34;5042518;28;20171;-80
2022/05/14 06:09:15;;;;;;;16.92;10.10;;;;;;;28.10;39.83;94873.81;5039435;28;20168;-80
2022/05/14 06:11:44;;;;;;;26.10;16.35;;;;;;;28.29;40.16;94867.25;5049702;28;20341;-83
2022/05/14 06:14:11;;;;;;;15.90;8.40;;;;;;;28.30;40.86;94869.63;5050290;28;20211;-84
2022/05/14 06:16:37;;;;;;;20.88;13.88;;;;;;;28.46;40.09;94870.72;5032745;28;20183;-84
2022/05/14 06:19:03;;;;;;;8.88;5.68;;;;;;;28.39;40.75;94828.97;5050688;28;20228;-84
2022/05/14 06:21:29;;;;;;;13.35;6.88;;;;;;;28.93;39.95;94873.44;5049337;28;20205;-82
2022/05/14 06:23:55;;;;;;;10.88;6.70;;;;;;;29.01;40.30;94852.84;5051057;28;20253;-88
2022/05/14 06:26:20;;;;;;;10.05;6.88;;;;;;;29.31;39.89;94878.84;5042528;28;20163;-85
2022/05/14 06:28:46;;;;;;;12.93;5.18;;;;;;;29.13;39.98;94847.50;5032567;28;20229;-86
2022/05/14 06:31:12;;;;;;;9.82;6.25;;;;;;;29.14;39.40;94840.97;5031243;28;20264;-86
2022/05/14 06:33:37;;;;;;;11.57;7.60;;;;;;;29.25;39.86;94863.84;5046495;28;20244;-87
2022/05/14 06:36:03;;;;;;;8.98;6.57;;;;;;;29.19;40.72;94857.03;5024830;28;20651;-85
2022/05/14 06:38:28;;;;;;;21.30;14.20;;;;;;;28.78;40.63;94804.31;5036574;28;20171;-85
2022/05/14 06:40:54;;;;;;;21.88;14.43;;;;;;;29.07;40.34;94836.03;5045472;28;20175;-85
2022/05/14 06:43:20;;;;;;;8.82;6.45;;;;;;;29.20;39.84;94842.34;5045699;28;20170;-82
2022/05/14 06:45:45;;;;;;;8.55;5.32;;;;;;;29.18;40.43;94828.31;5053384;28;20206;-81
2022/05/14 06:48:12;;;;;;;11.98;6.05;;;;;;;29.10;39.04;94819.13;5054130;28;21124;-81
2022/05/14 06:50:46;;;;;;;9.55;5.70;;;;;;;29.21;38.69;94871.06;5053791;28;20622;-81
2022/05/14 06:53:13;;;;;;;8.90;5.78;;;;;;;28.43;40.71;94884.91;5043816;28;20195;-81
2022/05/14 06:55:41;;;;;;;6.88;5.35;;;;;;;28.02;41.53;94844.81;5053754;28;20250;-81
2022/05/14 06:58:10;;;;;;;13.82;5.65;;;;;;;28.36;40.93;94862.94;5052300;28;20182;-83
2022/05/14 07:00:36;;;;;;;9.05;5.20;;;;;;;28.33;41.91;94827.59;5053558;28;20167;-82
2022/05/14 07:08:30;;;;;;;5.78;5.18;;;;;;;29.31;39.53;94886.97;5053454;28;20186;-80
2022/05/14 07:10:56;;;;;;;14.30;7.95;;;;;;;29.32;40.23;94855.97;5043529;28;20170;-82
2022/05/14 07:13:21;;;;;;;7.15;5.82;;;;;;;29.58;40.84;94864.78;5043928;28;20219;-81
2022/05/14 07:15:47;;;;;;;7.53;5.28;;;;;;;29.67;39.34;94869.34;5046085;28;20662;-81
2022/05/14 07:18:12;;;;;;;9.93;4.93;;;;;;;29.83;40.37;94848.63;5046590;28;20171;-81
2022/05/14 07:20:38;;;;;;;8.98;6.60;;;;;;;30.01;38.48;94853.59;5044833;28;20229;-81
2022/05/14 07:23:03;;;;;;;7.55;5.38;;;;;;;30.30;37.96;94889.91;5044120;28;20179;-81
2022/05/14 07:25:29;;;;;;;12.25;6.35;;;;;;;29.91;37.56;94874.91;5051019;28;20195;-80
2022/05/14 07:27:54;;;;;;;10.30;6.07;;;;;;;29.59;38.48;94868.28;5048152;28;20163;-80
2022/05/14 07:30:20;;;;;;;10.15;5.20;;;;;;;29.68;38.55;94892.66;5052521;28;20179;-79
2022/05/14 07:32:46;;;;;;;7.40;5.18;;;;;;;29.70;40.08;94874.13;5053121;28;20171;-80
2022/05/14 07:35:12;;;;;;;10.93;5.15;;;;;;;29.93;39.46;94864.50;5053469;28;20167;-80
2022/05/14 07:37:44;;;;;;;7.03;5.20;;;;;;;30.32;37.89;94895.81;5046590;28;20171;-80
2022/05/14 07:40:17;;;;;;;14.00;5.72;;;;;;;30.06;37.53;94874.31;5051524;28;20638;-80
2022/05/14 07:43:02;;;;;;;9.50;5.25;;;;;;;29.92;39.87;94890.88;5052735;28;20654;-80
2022/05/14 07:45:33;;;;;;;19.88;6.18;;;;;;;29.72;39.04;94891.66;5052368;28;20182;-79
2022/05/14 07:48:01;;;;;;;8.82;6.28;;;;;;;29.44;40.99;94896.00;5048096;28;20160;-80
2022/05/14 07:50:27;;;;;;;10.60;4.93;;;;;;;28.68;40.35;94852.63;5050712;28;20642;-82
2022/05/14 07:52:53;;;;;;;10.45;6.63;;;;;;;28.32;41.20;94839.53;5052540;28;20181;-82
2022/05/14 07:55:19;;;;;;;10.38;5.25;;;;;;;28.56;40.97;94874.97;5046198;28;20179;-80
2022/05/14 07:57:44;;;;;;;12.93;6.32;;;;;;;28.21;42.23;94859.94;5044046;28;20263;-79
2022/05/14 08:00:11;;;;;;;9.18;6.40;;;;;;;28.45;44.82;94888.06;5037484;28;20187;-80
2022/05/14 08:02:39;;;;;;;9.30;6.07;;;;;;;28.48;43.01;94873.91;5040733;28;20555;-82
2022/05/14 08:05:08;;;;;;;9.32;6.18;;;;;;;28.80;42.54;94901.56;5044305;28;20191;-81
2022/05/14 08:07:34;;;;;;;14.88;6.18;;;;;;;28.31;42.28;94846.84;5052410;28;20669;-80
2022/05/14 08:10:00;;;;;;;13.18;6.40;;;;;;;28.94;43.38;94898.66;5044070;28;20197;-82
2022/05/14 08:12:31;;;;;;;9.13;6.13;;;;;;;28.97;43.15;94898.00;5044327;28;20555;-82
2022/05/14 08:14:56;;;;;;;8.23;5.72;;;;;;;28.49;42.21;94850.31;5052477;28;20309;-83
2022/05/14 08:17:22;;;;;;;8.73;5.75;;;;;;;28.61;42.57;94850.44;5034771;28;20681;-84
2022/05/14 08:19:47;;;;;;;12.65;6.10;;;;;;;28.75;42.58;94899.78;5033436;28;20183;-82
2022/05/14 08:24:57;;;;;;;9.38;5.95;;;;;;;29.35;42.61;94877.03;5052352;28;20252;-79
2022/05/14 08:27:22;;;;;;;8.85;5.53;;;;;;;29.20;41.82;94828.78;5038363;28;20176;-79
2022/05/14 08:29:48;;;;;;;10.77;5.75;;;;;;;29.62;41.82;94857.56;5035581;28;20168;-81
2022/05/14 08:32:18;;;;;;;14.27;6.93;;;;;;;29.66;39.54;94843.34;5037940;28;20175;-80
2022/05/14 08:34:44;;;;;;;10.80;6.22;;;;;;;29.73;39.99;94873.47;5048040;28;20217;-82
2022/05/14 08:37:09;;;;;;;10.38;6.03;;;;;;;29.57;41.76;94863.22;5048187;28;20615;-79
2022/05/14 08:39:36;;;;;;;10.60;6.57;;;;;;;29.84;41.90;94882.81;5044135;28;21583;-79
2022/05/14 08:42:02;;;;;;;8.65;5.05;;;;;;;30.08;42.42;94882.16;5049462;28;20175;-80
2022/05/14 08:44:32;;;;;;;9.70;6.20;;;;;;;30.23;41.50;94862.50;5024539;28;20206;-80
2022/05/14 08:47:05;;;;;;;9.85;6.07;;;;;;;30.18;41.02;94857.28;5052003;28;20719;-81
2022/05/14 08:49:35;;;;;;;9.65;6.13;;;;;;;30.32;39.84;94882.22;5044159;28;20175;-81
2022/05/14 08:52:04;;;;;;;10.00;4.95;;;;;;;30.31;39.90;94884.16;5051039;28;20183;-82
2022/05/14 08:54:29;;;;;;;8.40;5.70;;;;;;;30.01;39.83;94853.59;5049404;28;20631;-83
2022/05/14 08:57:09;;;;;;;13.52;5.65;;;;;;;29.48;40.36;94859.75;5039748;28;20250;-81
2022/05/14 08:59:45;;;;;;;12.18;5.75;;;;;;;29.43;43.72;94867.28;5041720;28;20246;-81
2022/05/14 09:02:18;;;;;;;9.40;4.93;;;;;;;29.69;42.68;94873.31;5027730;28;21065;-81
2022/05/14 09:04:45;;;;;;;6.68;5.13;;;;;;;29.97;40.77;94865.47;5051217;28;20191;-82
2022/05/14 09:07:11;;;;;;;10.90;5.32;;;;;;;30.06;41.91;94868.09;5049555;28;20175;-81
2022/05/14 09:09:50;;;;;;;9.50;5.97;;;;;;;30.31;39.57;94884.16;5049564;28;20222;-81
2022/05/14 09:12:18;;;;;;;11.77;5.75;;;;;;;30.41;39.80;94895.72;5049983;28;20179;-81
2022/05/14 09:14:43;;;;;;;5.88;4.90;;;;;;;30.18;38.31;94879.81;5045573;28;20306;-81
2022/05/14 09:17:15;;;;;;;6.63;4.72;;;;;;;30.29;41.00;94889.13;5041760;28;20259;-82
2022/05/14 09:19:43;;;;;;;8.05;4.97;;;;;;;30.34;39.36;94891.66;5030300;28;20195;-81
2022/05/14 09:22:18;;;;;;;5.22;4.68;;;;;;;30.35;38.92;94890.53;5050999;28;20256;-82
2022/05/14 09:24:52;;;;;;;7.75;5.00;;;;;;;30.37;39.18;94885.53;5048808;28;20225;-82
2022/05/14 09:27:28;;;;;;;11.75;5.03;;;;;;;30.10;38.32;94886.09;5050383;28;20171;-82
2022/05/14 09:30:02;;;;;;;11.45;5.28;;;;;;;29.44;39.06;94883.25;5045224;28;20255;-81
2022/05/14 09:32:35;;;;;;;10.50;4.82;;;;;;;28.96;40.97;94885.56;5044646;28;20662;-81
2022/05/14 09:35:08;;;;;;;6.55;4.40;;;;;;;28.44;43.02;94872.16;5043336;28;20179;-81
2022/05/14 09:37:34;;;;;;;8.73;5.15;;;;;;;28.22;42.29;94892.13;5049908;28;20163;-82
2022/05/14 09:40:04;;;;;;;10.18;4.80;;;;;;;27.83;42.81;94876.84;5051098;28;20167;-81
2022/05/14 09:42:39;;;;;;;12.65;5.15;;;;;;;27.48;44.29;94872.50;5030443;28;20163;-81
2022/05/14 09:45:24;;;;;;;11.23;5.07;;;;;;;27.16;45.40;94860.19;5049340;28;20275;-82
2022/05/14 09:47:50;;;;;;;7.93;4.93;;;;;;;26.83;45.83;94854.34;5049402;28;20171;-81
2022/05/14 09:50:21;;;;;;;9.88;5.55;;;;;;;26.71;47.09;94883.88;5051034;28;20182;-81
2022/05/14 09:52:55;;;;;;;14.25;5.45;;;;;;;26.28;48.77;94854.75;5050815;28;20182;-82
2022/05/14 09:55:23;;;;;;;8.77;5.88;;;;;;;26.08;50.79;94884.91;5050655;28;20159;-83
2022/05/14 09:58:06;;;;;;;11.07;5.72;;;;;;;25.64;51.32;94856.84;5050300;28;20167;-83
2022/05/14 10:00:54;;;;;;;9.45;5.90;;;;;;;25.29;52.23;94836.84;5050725;28;20167;-82
2022/05/14 10:03:26;;;;;;;10.00;5.68;;;;;;;25.47;52.98;94883.63;5033080;28;20159;-83
2022/05/14 10:06:15;;;;;;;11.18;5.95;;;;;;;25.37;53.29;94891.91;5031723;28;20645;-82
2022/05/14 10:09:07;;;;;;;12.82;6.90;;;;;;;25.25;53.22;94888.97;5050286;28;20209;-83
2022/05/14 10:11:37;;;;;;;11.30;6.05;;;;;;;25.27;54.55;94889.44;5050048;28;20182;-80
2022/05/14 10:14:32;;;;;;;10.75;6.05;;;;;;;25.04;55.52;94858.94;5050068;28;20218;-82
2022/05/14 10:17:09;;;;;;;14.63;5.90;;;;;;;25.40;55.20;94889.44;5051377;28;20175;-81
2022/05/14 10:20:05;;;;;;;13.20;6.50;;;;;;;25.61;55.17;94864.72;5054721;28;20178;-81
2022/05/14 10:29:18;;;;;;;10.50;6.32;;;;;;;26.62;51.67;94857.63;5053575;28;20182;-81
2022/05/14 10:31:59;;;;;;;6.75;5.10;;;;;;;26.92;47.48;94895.75;5035376;28;20186;-79
2022/05/14 10:34:52;;;;;;;7.15;5.28;;;;;;;27.01;47.44;94885.75;5036947;28;20581;-84
2022/05/14 10:37:43;;;;;;;8.60;5.47;;;;;;;27.15;48.79;94881.03;5032398;28;20193;-84
2022/05/14 10:40:14;;;;;;;9.05;5.22;;;;;;;27.30;48.47;94890.63;5054955;28;20694;-84
2022/05/14 10:42:48;;;;;;;7.00;5.22;;;;;;;27.32;47.43;94886.50;5054076;28;20175;-84
2022/05/14 10:45:19;;;;;;;9.60;4.30;;;;;;;27.24;47.42;94881.88;5054603;28;20196;-84
2022/05/14 10:48:00;;;;;;;6.57;5.15;;;;;;;26.84;48.69;94834.31;5054887;28;20179;-84
2022/05/14 10:50:29;;;;;;;4.60;4.05;;;;;;;26.57;48.47;94808.34;5054745;28;20175;-84
2022/05/14 10:52:58;;;;;;;8.82;4.40;;;;;;;26.70;45.39;94876.88;5039447;28;20183;-85
2022/05/14 10:55:31;;;;;;;7.25;4.18;;;;;;;26.24;45.85;94834.84;5036608;28;20259;-84
2022/05/14 10:58:07;;;;;;;8.27;4.18;;;;;;;26.27;44.93;94862.06;5044331;28;20270;-84
2022/05/14 11:00:39;;;;;;;11.65;4.70;;;;;;;26.29;47.47;94859.06;5048744;28;20185;-84
2022/05/14 11:03:27;;;;;;;8.00;4.25;;;;;;;26.36;46.41;94855.91;5036914;28;20175;-84
2022/05/14 11:06:02;;;;;;;8.95;4.60;;;;;;;26.53;48.41;94858.69;5053699;28;20199;-81
2022/05/14 11:08:41;;;;;;;8.55;4.78;;;;;;;26.79;45.14;94856.91;5053291;28;20275;-81
2022/05/14 11:11:14;;;;;;;9.35;5.43;;;;;;;26.51;48.94;94805.00;5054023;28;20167;-81
2022/05/14 11:13:40;;;;;;;5.40;4.75;;;;;;;26.46;47.00;94842.94;5035034;28;20383;-83
2022/05/14 11:16:10;;;;;;;9.18;6.28;;;;;;;26.18;46.49;94844.19;5053941;28;20190;-87
2022/05/14 11:18:48;;;;;;;6.35;4.65;;;;;;;26.22;47.90;94826.25;5053936;28;20665;-84
2022/05/14 11:21:14;;;;;;;7.32;4.90;;;;;;;26.32;48.92;94792.81;5036201;28;20194;-81
2022/05/14 11:23:55;;;;;;;11.43;6.07;;;;;;;26.77;48.31;94842.09;5053702;28;20217;-84
2022/05/14 11:26:21;;;;;;;8.73;5.22;;;;;;;26.07;48.10;94769.97;5049576;28;20175;-84
2022/05/14 11:28:57;;;;;;;13.07;5.60;;;;;;;26.24;47.45;94841.03;5053320;28;20171;-84
2022/05/14 11:31:27;;;;;;;7.40;5.15;;;;;;;25.83;48.08;94800.81;5052172;28;20292;-84
2022/05/14 11:33:56;;;;;;;11.32;5.63;;;;;;;25.18;47.85;94706.91;5053212;28;20167;-84
2022/05/14 11:36:31;;;;;;;10.10;5.55;;;;;;;25.65;48.31;94787.50;5053385;28;20174;-85
2022/05/14 11:39:18;;;;;;;8.68;5.35;;;;;;;25.92;49.33;94827.84;5053092;28;20186;-85
2022/05/14 11:41:44;;;;;;;10.48;5.75;;;;;;;25.73;48.01;94819.94;5052976;28;20189;-85
2022/05/14 11:44:09;;;;;;;7.97;5.65;;;;;;;25.37;46.62;94767.91;5052769;28;20202;-85
2022/05/14 11:46:48;;;;;;;10.35;5.40;;;;;;;25.55;49.55;94810.88;5053275;28;20647;-85
2022/05/14 11:49:16;;;;;;;7.65;5.10;;;;;;;25.69;47.61;94837.03;5052804;28;20174;-84
2022/05/14 11:52:08;;;;;;;9.00;5.32;;;;;;;25.63;46.68;94839.06;5032985;28;21871;-84
2022/05/14 11:54:47;;;;;;;12.65;5.03;;;;;;;25.39;46.50;94819.63;5052593;28;20171;-85
2022/05/14 11:57:44;;;;;;;13.98;4.22;;;;;;;25.41;48.31;94836.31;5051523;28;20183;-84
2022/05/14 12:00:14;;;;;;;6.22;4.28;;;;;;;25.40;49.43;94848.19;5037349;28;20278;-81